KMKO/MKO METAR and TAF weather

Enter ICAO airport designator
Station Type Date Time Source
KMKO METAR 2021/05/11 22:53 UTC NOAA

KMKO 112253Z AUTO 03006KT 10SM OVC017 13/11 A3014 RMK AO2 SLP205 T01330106


Station Type Date Time Source
KMKO Decoded METAR 2021/05/11 22:53 UTC NOAA

MUSKOGEE DAVIS FIELD, OK, United States (KMKO) 35-39N 95-22W 185M
May 11, 2021 - 06:53 PM EDT / 2021.05.11 2253 UTC
Wind: from the NNE (030 degrees) at 7 MPH (6 KT):0
Visibility: 10 mile(s):0
Sky conditions: overcast
Temperature: 55.9 F (13.3 C)
Dew Point: 51.1 F (10.6 C)
Relative Humidity: 83%
Pressure (altimeter): 30.14 in. Hg (1020 hPa)
ob: KMKO 112253Z AUTO 03006KT 10SM OVC017 13/11 A3014 RMK AO2 SLP205 T01330106
cycle: 23

Station Type Date Time Source
KMKO TAF UTC NOAA

Error!

Example: see airport list